METAR Data
IDs: Format: Raw Decoded Include TAF

Data at: 1040 UTC 26 Sep 2018

KVER 261015Z AUTO 00000KT 10SM CLR 11/11 A3019 RMK AO2 T01110112
KVER 260955Z AUTO 00000KT 10SM CLR 11/11 A3019 RMK AO2 T01110111
KVER 260935Z AUTO 32003KT 10SM CLR 11/11 A3018 RMK AO2 T01120111
KVER 260915Z AUTO 31003KT 10SM CLR 12/11 A3017 RMK AO2 T01150105
KVER 260855Z AUTO 32004KT 10SM CLR 12/10 A3017 RMK AO2 T01180102
KVER 260835Z AUTO 33003KT 10SM CLR 12/10 A3016 RMK AO2 T01200103
KVER 260815Z AUTO 33005KT 10SM CLR 12/10 A3016 RMK AO2 T01230104
KVER 260755Z AUTO 34005KT 10SM CLR 13/11 A3016 RMK AO2 T01250105
KVER 260735Z AUTO 34004KT 10SM CLR 13/11 A3016 RMK AO2 T01260107
KVER 260715Z AUTO 33005KT 10SM CLR 13/11 A3016 RMK AO2 T01300107
KVER 260655Z AUTO 34005KT 10SM CLR 13/11 A3015 RMK AO2 LTG DSNT SE T01330111
KVER 260635Z AUTO 34006KT 10SM SCT065 14/11 A3014 RMK AO2 T01380114
KVER 260615Z AUTO 33007KT 10SM BKN065 14/13 A3014 RMK AO2 T01410126
KVER 260555Z AUTO 34005KT 10SM OVC065 14/13 A3014 RMK AO2 T01430126 10351 20099 403510099
KVER 260535Z AUTO 34005KT 10SM BKN065 OVC085 14/13 A3013 RMK AO2 LTG DSNT S T01440132
KVER 260515Z AUTO 33007KT 10SM SCT065 OVC075 15/14 A3012 RMK AO2 T01450140
KVER 260455Z AUTO 35009KT 10SM SCT065 OVC075 14/14 A3011 RMK AO2 LTG DSNT SE THRU SW T01430144
KVER 260435Z AUTO 34005KT 10SM -RA SCT033 SCT050 OVC070 14/14 A3011 RMK AO2 T01410142
KVER 260415Z AUTO 35008KT 7SM RA SCT026 BKN033 OVC060 14/14 A3009 RMK AO2 T01410140
KVER 260355Z AUTO 34011G21KT 10SM -RA SCT009 SCT027 OVC060 15/14 A3009 RMK AO2 LTG DSNT NE T01450143
KVER 260335Z AUTO 34012G16KT 7SM -VCTSRA SCT010 BKN050 OVC060 15/15 A3010 RMK AO2 LTG DSNT N AND NE T01530149
KVER 260315Z AUTO 34010G16KT 10SM TSRA BKN019 OVC025 17/13 A3009 RMK AO2 LTG DSNT SW THRU NE T01660132
KVER 260255Z AUTO 33012G20KT 10SM OVC019 18/13 A3007 RMK AO2 LTG DSNT SW AND W T01770134
KVER 260235Z AUTO 34008G16KT 10SM BKN019 OVC028 18/14 A3005 RMK AO2 T01820143
KVER 260215Z AUTO 34013G21KT 10SM OVC017 19/15 A3003 RMK AO2 T01870149
KVER 260155Z AUTO 34012G16KT 10SM OVC017 19/16 A3002 RMK AO2 T01930157
KVER 260135Z AUTO 31010G15KT 10SM BKN019 BKN050 BKN090 20/16 A3001 RMK AO2 T02010160
KVER 260115Z AUTO 33008G17KT 10SM SCT050 BKN090 21/16 A3000 RMK AO2 T02110156
KVER 260055Z AUTO 32010KT 10SM SCT090 22/16 A2998 RMK AO2 T02180158
KVER 260035Z AUTO 32008G15KT 10SM CLR 23/16 A2995 RMK AO2 T02270163
KVER 260015Z AUTO 32008KT 10SM CLR 23/17 A2993 RMK AO2 T02340167
KVER 252355Z AUTO 33010G17KT 10SM CLR 24/18 A2993 RMK AO2 T02420176 10351 20099
KVER 252335Z AUTO 32006KT 270V340 10SM SCT048 SCT065 SCT080 25/18 A2992 RMK AO2 T02500180
KVER 252315Z AUTO 33008G17KT 10SM BKN050 BKN065 OVC080 26/17 A2990 RMK AO2 T02630166
KVER 252255Z AUTO 27004KT 10SM BKN060 BKN080 OVC100 27/16 A2989 RMK AO2 T02690163
KVER 252235Z AUTO 26005KT 10SM SCT060 BKN080 BKN100 28/17 A2988 RMK AO2 T02760169
KVER 252215Z AUTO 24006KT 10SM BKN080 OVC090 28/17 A2988 RMK AO2 T02770174
KVER 252155Z AUTO 26003KT 10SM BKN080 27/18 A2988 RMK AO2 T02740177
KVER 252135Z AUTO 25006KT 10SM SCT080 28/18 A2988 RMK AO2 T02780176
KVER 252115Z AUTO 25005KT 10SM CLR 28/18 A2988 RMK AO2 T02810175
KVER 252055Z AUTO 26006KT 10SM SCT043 SCT050 SCT070 28/17 A2987 RMK AO2 T02840174
KVER 252035Z AUTO 24008KT 210V270 10SM SCT045 BKN050 BKN070 29/17 A2988 RMK AO2 T02850174
KVER 252015Z AUTO 23008KT 10SM SCT041 BKN050 BKN070 28/18 A2988 RMK AO2 T02810176
KVER 251955Z AUTO 25006G15KT 10SM BKN041 BKN050 OVC070 27/18 A2988 RMK AO2 T02740176
KVER 251935Z AUTO 26010KT 10SM SCT039 SCT045 BKN070 29/17 A2988 RMK AO2 T02880172
KVER 251915Z AUTO 22008KT 10SM SCT037 SCT045 29/18 A2988 RMK AO2 T02890176
KVER 251855Z AUTO 25009KT 210V280 10SM SCT037 SCT070 28/18 A2989 RMK AO2 LTG DSNT E T02830181
KVER 251835Z AUTO 24008KT 10SM SCT037 SCT046 BKN070 27/18 A2990 RMK AO2 T02740175
KVER 251815Z AUTO 25010G15KT 10SM SCT037 BKN070 28/18 A2991 RMK AO2 T02840175
KVER 251755Z AUTO 22008G15KT 200V260 10SM SCT033 SCT050 BKN060 28/18 A2991 RMK AO2 T02760181 10351 20099
KVER 251735Z AUTO 24006KT 10SM SCT033 SCT050 BKN060 27/19 A2991 RMK AO2 T02730186
KVER 251715Z AUTO 21006KT 10SM SCT025 SCT060 28/19 A2991 RMK AO2 LTG DSNT E T02770188
KVER 251655Z AUTO 22006KT 10SM SCT025 SCT060 27/20 A2991 RMK AO2 T02660196
KVER 251635Z AUTO 22005G14KT 10SM SCT021 SCT025 SCT042 26/20 A2991 RMK AO2 T02610198
KVER 251615Z AUTO 23008KT 10SM BKN021 BKN042 BKN065 25/20 A2991 RMK AO2 T02530203
KVER 251555Z AUTO 24006KT 10SM SCT017 25/21 A2991 RMK AO2 T02490205
KVER 251535Z AUTO 20006KT 10SM BKN012 BKN070 25/21 A2991 RMK AO2 LTG DSNT E T02530210
KVER 251515Z AUTO 23005KT 10SM OVC012 24/22 A2991 RMK AO2 LTG DSNT E T02430216
KVER 251455Z AUTO 20006KT 10SM OVC010 24/22 A2991 RMK AO2 T02410220
KVER 251435Z AUTO 20004KT 10SM OVC010 24/22 A2991 RMK AO2 T02360224
KVER 251415Z AUTO 23004KT 10SM BKN010 23/23 A2991 RMK AO2 LTG DSNT E T02290227
KVER 251355Z AUTO 21004KT 10SM SCT010 SCT075 22/ A2991 RMK AO2 T0221
KVER 251335Z AUTO 20003KT 10SM SCT075 21/ A2991 RMK AO2 T0213
KVER 251315Z AUTO 17004KT 10SM CLR 21/ A2991 RMK AO2 T0206
KVER 251255Z AUTO 00000KT 7SM SCT042 SCT070 20/ A2992 RMK AO2 T0202
KVER 251235Z AUTO 16003KT 7SM SCT042 OVC075 20/ A2992 RMK AO2 T0199
KVER 251215Z AUTO 15003KT 7SM OVC075 20/ A2992 RMK AO2 T0197
KVER 251155Z AUTO 00000KT 10SM OVC075 20/ A2991 RMK AO2 T0197 10351 20099
KVER 251135Z AUTO 15003KT 10SM SCT065 OVC075 20/ A2991 RMK AO2 T0196
KVER 251115Z AUTO 00000KT 10SM OVC075 20/ A2991 RMK AO2 T0195
KVER 251055Z AUTO 00000KT 10SM OVC075 19/ A2990 RMK AO2 LTG DSNT E AND SE T0193
KVER 251035Z AUTO 00000KT 7SM OVC075 19/ A2990 RMK AO2 T0194
KVER 251015Z AUTO 00000KT 10SM SCT042 OVC075 20/ A2990 RMK AO2 T0195
KVER 250955Z AUTO 00000KT 10SM SCT042 OVC075 20/ A2990 RMK AO2 T0196
KVER 250935Z AUTO 00000KT 10SM BKN075 20/ A2990 RMK AO2 LTG DSNT E T0195
KVER 250915Z AUTO 00000KT 10SM SCT075 20/ A2990 RMK AO2 T0196
KVER 250855Z AUTO 00000KT 10SM OVC075 20/ A2990 RMK AO2 T0200
KVER 250835Z AUTO 00000KT 10SM OVC075 20/ A2990 RMK AO2 LTG DSNT NE AND SE T0203
KVER 250815Z AUTO 00000KT 10SM OVC065 20/ A2990 RMK AO2 T0201
KVER 250735Z AUTO 00000KT 10SM OVC065 20/ A2991 RMK AO2 T0198
KVER 250715Z AUTO 00000KT 10SM OVC065 20/ A2991 RMK AO2 T0197
KVER 250655Z AUTO 00000KT 10SM BKN065 20/ A2991 RMK AO2 T0197
KVER 250635Z AUTO 00000KT 10SM CLR 20/ A2991 RMK AO2 T0197
KVER 250615Z AUTO 17003KT 10SM CLR 20/ A2990 RMK AO2 T0195
KVER 250555Z AUTO 15003KT 10SM CLR 20/ A2990 RMK AO2 T0197 10351 20099 403510099
KVER 250535Z AUTO 15004KT 10SM SCT046 20/ A2991 RMK AO2 T0203
KVER 250515Z AUTO 13005KT 10SM OVC046 20/ A2991 RMK AO2 T0204
KVER 250455Z AUTO 00000KT 10SM OVC046 20/ A2991 RMK AO2 T0200
KVER 250435Z AUTO 00000KT 10SM OVC046 20/ A2991 RMK AO2 T0201
KVER 250415Z AUTO 00000KT 10SM OVC046 20/ A2991 RMK AO2 T0199
KVER 250355Z AUTO 14004KT 10SM BKN046 20/21 A2991 RMK AO2 T02030205
KVER 250335Z AUTO 13004KT 10SM SCT035 SCT044 21/21 A2991 RMK AO2 T02130207
KVER 250315Z AUTO 00000KT 10SM OVC035 22/21 A2991 RMK AO2 T02150212
KVER 250255Z AUTO 00000KT 10SM OVC035 22/21 A2991 RMK AO2 T02160206
KVER 250235Z AUTO 00000KT 10SM OVC035 22/20 A2991 RMK AO2 T02170204
KVER 250215Z AUTO 15003KT 10SM OVC035 22/20 A2990 RMK AO2 T02180204
KVER 250155Z AUTO 12005KT 10SM OVC033 22/21 A2990 RMK AO2 T02160208
KVER 250135Z AUTO 13004KT 10SM OVC033 22/21 A2989 RMK AO2 T02180209
KVER 250115Z AUTO 00000KT 10SM OVC033 22/20 A2989 RMK AO2 T02200204
KVER 250055Z AUTO 00000KT 10SM OVC033 22/20 A2989 RMK AO2 T02200200
KVER 250035Z AUTO 00000KT 10SM SCT026 OVC035 22/20 A2988 RMK AO2 T02200199
KVER 250015Z AUTO 00000KT 10SM SCT022 BKN028 OVC037 22/20 A2988 RMK AO2 T02210199
KVER 242355Z AUTO 21003KT 10SM BKN022 OVC029 23/20 A2988 RMK AO2 T02260195 10351 20099
KVER 242335Z AUTO 22004KT 10SM SCT027 OVC033 23/19 A2988 RMK AO2 T02290192
KVER 242315Z AUTO 18003KT 10SM SCT025 OVC031 23/19 A2987 RMK AO2 T02300191
KVER 242255Z AUTO 17005KT 10SM OVC033 23/19 A2987 RMK AO2 T02300192